X  Zamknij Lotniskowe dane METAR     LYNI Nis Airport
Temperatura
27°F Temperatura
18°F Punkt rosy
69% Wilgotność



Wiatr
22 MPH
35 KM/H
10 M/S
19 KTS



330°
NNW
Warunki bieżące

Częściowe zachmurzenie Częściowe zachmurzenie
Ciśnienie 1031.92 (hPa) - 30.47 (inHg)
Widoczność 6.2 (mil) - 10 (km)
Lotnisko
Kod lotniska LYNI

Położenie: Nis Airport
Odległość: 63 (mi)

Metar:
LYNI 061430Z 33019KT 9999 FEW025 BKN069 M03/M08 Q1032 NOSIG

Czas: 06-02-2023 15:30 CET